Time;durP1;ratioP1;P1;durP2;ratioP2;P2;SDS_P1;SDS_P2;PMS_P1;PMS_P2;Temp;Humidity;BMP_temperature;BMP_pressure;BME280_temperature;BME280_humidity;BME280_pressure;Samples;Min_cycle;Max_cycle;Signal;HPM_P1;HPM_P2
2023/03/23 00:01:14;;;;;;;1999.90;999.90;;;;;;;8.94;100.00;97682.66;5097971;28;20594;-86
2023/03/23 00:03:41;;;;;;;1999.90;999.90;;;;;;;9.05;100.00;97681.44;5097454;28;20027;-85
2023/03/23 00:06:07;;;;;;;1999.90;999.90;;;;;;;8.91;100.00;97655.97;5098355;28;20036;-87
2023/03/23 00:08:45;;;;;;;1999.90;999.90;;;;;;;8.92;100.00;97677.50;5098126;28;20417;-90
2023/03/23 00:11:21;;;;;;;1999.90;999.90;;;;;;;8.84;100.00;97674.59;5098184;28;20073;-86
2023/03/23 00:13:51;;;;;;;1999.90;999.90;;;;;;;8.83;100.00;97678.44;5100732;28;20031;-86
2023/03/23 00:16:28;;;;;;;1999.90;999.90;;;;;;;8.79;100.00;97677.41;5096788;28;20059;-80
2023/03/23 00:18:55;;;;;;;1999.90;999.90;;;;;;;8.69;100.00;97658.41;5097103;28;20111;-85
2023/03/23 00:21:25;;;;;;;1999.90;999.90;;;;;;;8.62;100.00;97666.94;5097544;28;20032;-87
2023/03/23 00:23:51;;;;;;;1999.90;999.90;;;;;;;8.62;100.00;97672.41;5096575;28;20461;-91
2023/03/23 00:26:18;;;;;;;1999.90;999.90;;;;;;;8.63;100.00;97678.66;5099907;28;20028;-88
2023/03/23 00:28:46;;;;;;;1999.90;999.90;;;;;;;8.57;100.00;97658.84;5105865;28;20056;-86
2023/03/23 00:31:12;;;;;;;1999.90;999.90;;;;;;;8.48;100.00;97664.13;5105563;28;20016;-85
2023/03/23 00:33:40;;;;;;;1999.90;999.90;;;;;;;8.45;100.00;97669.31;5098529;28;20064;-87
2023/03/23 00:36:08;;;;;;;1999.90;999.90;;;;;;;8.21;100.00;97658.34;5099060;28;20031;-86
2023/03/23 00:38:37;;;;;;;1999.90;999.90;;;;;;;8.39;100.00;97676.75;5097203;28;20035;-85
2023/03/23 00:41:11;;;;;;;1999.90;999.90;;;;;;;8.47;100.00;97676.09;5113804;28;20027;-87
2023/03/23 00:43:36;;;;;;;1999.90;999.90;;;;;;;8.32;100.00;97659.09;5112453;28;20031;-87
2023/03/23 00:46:08;;;;;;;1999.90;999.90;;;;;;;8.36;100.00;97669.16;5113309;28;20036;-83
2023/03/23 00:48:35;;;;;;;1999.90;999.90;;;;;;;8.36;100.00;97665.63;5113549;28;20032;-85
2023/03/23 00:51:05;;;;;;;1999.90;999.90;;;;;;;8.22;100.00;97657.25;5114314;28;20404;-84
2023/03/23 00:53:32;;;;;;;1999.90;999.90;;;;;;;8.24;100.00;97660.50;5114824;28;20046;-86
2023/03/23 00:55:57;;;;;;;1999.90;999.90;;;;;;;8.12;100.00;97667.44;5114697;28;20050;-85
2023/03/23 00:58:23;;;;;;;1999.90;999.90;;;;;;;8.06;100.00;97650.31;5113472;28;20075;-85
2023/03/23 01:00:48;;;;;;;1999.90;999.90;;;;;;;8.11;100.00;97655.75;5109999;28;20027;-86
2023/03/23 01:03:17;;;;;;;1999.90;999.90;;;;;;;8.03;100.00;97654.44;5084479;28;20028;-85
2023/03/23 01:05:46;;;;;;;1999.90;999.90;;;;;;;8.03;100.00;97664.50;5108292;28;20024;-85
2023/03/23 01:08:12;;;;;;;1999.90;999.90;;;;;;;7.98;100.00;97668.13;5110720;28;20047;-83
2023/03/23 01:10:38;;;;;;;1999.90;999.90;;;;;;;7.94;100.00;97650.72;5109895;28;20031;-84
2023/03/23 01:13:05;;;;;;;1999.90;999.90;;;;;;;8.01;100.00;97662.09;5108276;28;20020;-83
2023/03/23 01:15:31;;;;;;;1999.90;999.90;;;;;;;7.91;100.00;97645.84;5107582;28;20388;-85
2023/03/23 01:17:57;;;;;;;1999.90;999.90;;;;;;;7.94;100.00;97644.44;5108229;28;20012;-83
2023/03/23 01:20:23;;;;;;;1999.90;999.90;;;;;;;8.05;100.00;97656.84;5108474;28;20039;-87
2023/03/23 01:22:49;;;;;;;1999.90;999.90;;;;;;;8.12;100.00;97651.91;5108710;28;21285;-87
2023/03/23 01:25:15;;;;;;;1999.90;999.90;;;;;;;8.06;100.00;97644.88;5108958;28;20028;-84
2023/03/23 01:27:41;;;;;;;1999.90;999.90;;;;;;;7.90;100.00;97638.75;5109095;28;20020;-83
2023/03/23 01:30:10;;;;;;;1999.90;999.90;;;;;;;7.92;100.00;97636.59;5105541;28;20016;-86
2023/03/23 01:32:36;;;;;;;1999.90;999.90;;;;;;;7.94;100.00;97639.81;5103599;28;20032;-84
2023/03/23 01:35:01;;;;;;;1999.90;999.90;;;;;;;7.84;100.00;97647.25;5103629;28;20169;-84
2023/03/23 01:37:26;;;;;;;1999.90;999.90;;;;;;;7.88;100.00;97643.69;5106201;28;20028;-86
2023/03/23 01:39:56;;;;;;;1999.90;999.90;;;;;;;7.78;100.00;97618.44;5106609;28;20120;-87
2023/03/23 01:42:31;;;;;;;1999.90;999.90;;;;;;;7.81;100.00;97631.50;5102080;28;20024;-84
2023/03/23 01:45:35;;;;;;;1999.90;999.90;;;;;;;7.78;100.00;97629.34;5103907;28;20027;-86
2023/03/23 01:48:11;;;;;;;1999.90;999.90;;;;;;;7.71;100.00;97640.56;5101614;28;20065;-89
2023/03/23 01:51:03;;;;;;;1999.90;999.90;;;;;;;7.70;100.00;97635.41;5101789;28;20107;-91
2023/03/23 01:53:55;;;;;;;1999.90;999.90;;;;;;;7.62;100.00;97630.56;5089013;28;20052;-90
2023/03/23 01:56:25;;;;;;;1999.90;999.90;;;;;;;7.46;100.00;97606.19;5100278;28;20560;-90
2023/03/23 01:58:53;;;;;;;1999.90;999.90;;;;;;;7.51;100.00;97621.69;5098085;28;20027;-92
2023/03/23 02:01:22;;;;;;;1999.90;999.90;;;;;;;7.49;100.00;97611.06;5100284;28;20504;-85
2023/03/23 02:03:50;;;;;;;1999.90;999.90;;;;;;;7.59;100.00;97629.22;5096744;28;20073;-83
2023/03/23 02:06:16;;;;;;;1999.90;999.90;;;;;;;7.47;100.00;97623.31;5094706;28;20032;-84
2023/03/23 02:08:43;;;;;;;1999.90;999.90;;;;;;;7.52;100.00;97617.84;5094094;28;20048;-88
2023/03/23 02:11:17;;;;;;;1999.90;999.90;;;;;;;7.47;100.00;97624.16;5095186;28;20024;-87
2023/03/23 02:13:44;;;;;;;1999.90;999.90;;;;;;;7.45;100.00;97626.34;5093367;28;20086;-87
2023/03/23 02:16:12;;;;;;;1999.90;999.90;;;;;;;7.51;100.00;97627.94;5094459;28;20032;-84
2023/03/23 02:18:50;;;;;;;1999.90;999.90;;;;;;;7.33;100.00;97609.53;5094072;28;20054;-86
2023/03/23 02:21:40;;;;;;;1999.90;999.90;;;;;;;7.36;100.00;97619.84;5095268;28;20036;-88
2023/03/23 02:24:30;;;;;;;1999.90;999.90;;;;;;;7.36;100.00;97619.84;5095292;28;20078;-87
2023/03/23 02:27:05;;;;;;;1999.90;999.90;;;;;;;7.29;100.00;97622.09;5095914;28;20039;-88
2023/03/23 02:29:33;;;;;;;1999.90;999.90;;;;;;;7.37;100.00;97632.38;5095095;28;20123;-88
2023/03/23 02:32:07;;;;;;;1999.90;999.90;;;;;;;7.34;100.00;97632.13;5096690;28;20460;-87
2023/03/23 02:35:02;;;;;;;1999.90;999.90;;;;;;;7.22;100.00;97621.59;5094612;28;20081;-86
2023/03/23 02:37:33;;;;;;;1999.90;999.90;;;;;;;7.22;100.00;97616.16;5098722;28;20043;-86
2023/03/23 02:40:11;;;;;;;1999.90;999.90;;;;;;;7.21;100.00;97625.41;5106928;28;20530;-84
2023/03/23 02:42:39;;;;;;;1999.90;999.90;;;;;;;7.03;100.00;97607.03;5106440;28;20058;-90
2023/03/23 02:45:09;;;;;;;1999.90;999.90;;;;;;;7.16;100.00;97620.00;5103469;28;20032;-90
2023/03/23 02:47:36;;;;;;;1999.90;999.90;;;;;;;7.21;100.00;97610.97;5101015;28;20209;-91
2023/03/23 02:50:05;;;;;;;1999.90;999.90;;;;;;;7.22;100.00;97616.16;5097179;28;20062;-90
2023/03/23 02:52:32;;;;;;;1999.90;999.90;;;;;;;7.20;100.00;97618.34;5096479;28;20476;-89
2023/03/23 02:55:01;;;;;;;1999.90;999.90;;;;;;;7.12;100.00;97607.25;5095416;28;20031;-86
2023/03/23 02:57:28;;;;;;;1999.90;999.90;;;;;;;7.08;100.00;97603.47;5098392;28;20051;-87
2023/03/23 02:59:54;;;;;;;1999.90;999.90;;;;;;;6.90;100.00;97594.88;5098023;28;20043;-88
2023/03/23 03:02:32;;;;;;;1999.90;999.90;;;;;;;7.03;100.00;97617.91;5096129;28;20032;-85
2023/03/23 03:05:27;;;;;;;1999.90;999.90;;;;;;;6.82;100.00;97595.47;5099180;28;20518;-85
2023/03/23 03:08:02;;;;;;;1999.90;999.90;;;;;;;7.11;100.00;97603.69;5098706;28;20090;-83
2023/03/23 03:10:58;;;;;;;1999.90;999.90;;;;;;;7.03;100.00;97607.03;5099757;28;20024;-85
2023/03/23 03:13:29;;;;;;;1999.90;999.90;;;;;;;7.04;100.00;97610.56;5100200;28;20557;-85
2023/03/23 03:16:10;;;;;;;1999.90;999.90;;;;;;;6.99;100.00;97603.25;5099252;28;20028;-88
2023/03/23 03:18:48;;;;;;;1999.90;999.90;;;;;;;7.09;100.00;97614.06;5099852;28;20131;-87
2023/03/23 03:21:16;;;;;;;1999.90;999.90;;;;;;;6.90;100.00;97586.72;5098320;28;20122;-84
2023/03/23 03:23:45;;;;;;;1999.90;999.90;;;;;;;6.89;100.00;97603.31;5099278;28;20020;-88
2023/03/23 03:26:17;;;;;;;1999.90;999.90;;;;;;;6.87;100.00;97605.47;5099110;28;20031;-90
2023/03/23 03:28:47;;;;;;;1999.90;999.90;;;;;;;6.91;100.00;97598.41;5100674;28;20025;-87
2023/03/23 03:31:17;;;;;;;1999.90;999.90;;;;;;;7.01;100.00;97606.50;5100241;28;20393;-88
2023/03/23 03:33:43;;;;;;;1999.90;999.90;;;;;;;6.74;100.00;97581.63;5101087;28;20020;-89
2023/03/23 03:36:16;;;;;;;1999.90;999.90;;;;;;;6.90;100.00;97613.06;5099336;28;20039;-88
2023/03/23 03:38:49;;;;;;;1999.90;999.90;;;;;;;6.85;100.00;97615.84;5096682;28;20020;-85
2023/03/23 03:41:15;;;;;;;1999.90;999.90;;;;;;;6.76;100.00;97625.66;5098212;28;20027;-84
2023/03/23 03:43:41;;;;;;;1999.90;999.90;;;;;;;6.66;100.00;97622.97;5096777;28;20028;-84
2023/03/23 03:46:06;;;;;;;1999.90;999.90;;;;;;;6.57;100.00;97627.38;5096744;28;20024;-83
2023/03/23 03:48:33;;;;;;;1999.90;999.90;;;;;;;6.48;100.00;97633.38;5097564;28;20020;-85
2023/03/23 03:51:00;;;;;;;1999.90;999.90;;;;;;;6.37;100.00;97609.22;5098866;28;20056;-85
2023/03/23 03:53:28;;;;;;;1999.90;999.90;;;;;;;6.36;100.00;97622.00;5096939;28;20114;-83
2023/03/23 03:55:59;;;;;;;1999.90;999.90;;;;;;;6.18;100.00;97605.50;5094668;28;20024;-84
2023/03/23 03:58:31;;;;;;;1999.90;999.90;;;;;;;6.18;100.00;97611.72;5086124;28;20071;-80
2023/03/23 04:00:58;;;;;;;1999.90;999.90;;;;;;;6.20;100.00;97627.75;5074033;28;20024;-81
2023/03/23 04:03:23;;;;;;;1999.90;999.90;;;;;;;6.19;100.00;97624.22;5079886;28;20031;-83
2023/03/23 04:05:49;;;;;;;1999.90;999.90;;;;;;;6.18;100.00;97622.59;5096686;28;20028;-84
2023/03/23 04:08:14;;;;;;;1999.90;999.90;;;;;;;6.15;100.00;97603.31;5099151;28;20040;-86
2023/03/23 04:10:41;;;;;;;1999.90;999.90;;;;;;;6.17;100.00;97629.09;5100471;28;20060;-84
2023/03/23 04:13:07;;;;;;;1999.90;999.90;;;;;;;6.21;100.00;97623.94;5099746;28;20500;-83
2023/03/23 04:15:32;;;;;;;1999.90;999.90;;;;;;;6.12;100.00;97612.84;5097201;28;20027;-81
2023/03/23 04:17:58;;;;;;;1999.90;999.90;;;;;;;6.27;100.00;97620.94;5081698;28;20106;-78
2023/03/23 04:20:24;;;;;;;1999.90;999.90;;;;;;;6.30;100.00;97625.81;5091731;28;20020;-78
2023/03/23 04:22:51;;;;;;;1999.90;999.90;;;;;;;6.19;100.00;97629.66;5091530;28;20433;-80
2023/03/23 04:25:20;;;;;;;1999.90;999.90;;;;;;;6.28;100.00;97638.06;5096708;28;20020;-83
2023/03/23 04:27:52;;;;;;;1999.90;999.90;;;;;;;6.12;100.00;97628.31;5095056;28;20028;-82
2023/03/23 04:30:19;;;;;;;1999.90;999.90;;;;;;;6.15;100.00;97636.72;5096942;28;20039;-85
2023/03/23 04:32:45;;;;;;;1999.90;999.90;;;;;;;5.99;100.00;97613.41;5096537;28;20012;-87
2023/03/23 04:35:13;;;;;;;1999.90;999.90;;;;;;;6.12;100.00;97622.88;5096422;28;20851;-78
2023/03/23 04:37:40;;;;;;;1999.90;999.90;;;;;;;6.11;100.00;97632.91;5091194;28;20020;-77
2023/03/23 04:40:10;;;;;;;1999.90;999.90;;;;;;;6.10;100.00;97625.06;5092479;28;20077;-77
2023/03/23 04:42:37;;;;;;;1999.90;999.90;;;;;;;6.10;100.00;97644.88;5092661;28;20031;-76
2023/03/23 04:45:05;;;;;;;1999.90;999.90;;;;;;;5.91;100.00;97600.41;5092765;28;20035;-76
2023/03/23 04:47:33;;;;;;;1999.90;999.90;;;;;;;5.89;100.00;97614.22;5092334;28;20028;-81
2023/03/23 04:49:58;;;;;;;1999.90;999.90;;;;;;;6.07;100.00;97631.88;5092875;28;20024;-78
2023/03/23 04:52:28;;;;;;;1999.90;999.90;;;;;;;6.15;100.00;97646.75;5092117;28;20020;-77
2023/03/23 04:54:55;;;;;;;1999.90;999.90;;;;;;;6.14;100.00;97635.09;5090962;28;20123;-76
2023/03/23 04:57:22;;;;;;;1999.90;999.90;;;;;;;6.10;100.00;97633.22;5092254;28;20031;-81
2023/03/23 04:59:48;;;;;;;1999.90;999.90;;;;;;;6.23;100.00;97644.31;5092201;28;20024;-79
2023/03/23 05:02:14;;;;;;;1999.90;999.90;;;;;;;6.17;100.00;97648.09;5092202;28;20077;-76
2023/03/23 05:04:40;;;;;;;1999.90;999.90;;;;;;;6.03;100.00;97627.25;5091856;28;20032;-79
2023/03/23 05:07:07;;;;;;;1999.90;999.90;;;;;;;6.11;100.00;97638.34;5092046;28;20415;-76
2023/03/23 05:09:33;;;;;;;1999.90;999.90;;;;;;;6.14;100.00;97651.38;5091996;28;20104;-76
2023/03/23 05:12:07;;;;;;;1999.90;999.90;;;;;;;6.16;100.00;97646.50;5092339;28;20024;-81
2023/03/23 05:14:32;;;;;;;1999.90;999.90;;;;;;;6.25;100.00;97649.47;5091500;28;20028;-77
2023/03/23 05:16:58;;;;;;;1999.90;999.90;;;;;;;6.19;100.00;97640.53;5086568;28;20027;-78
2023/03/23 05:19:25;;;;;;;1999.90;999.90;;;;;;;6.30;100.00;97647.53;5092498;28;20515;-77
2023/03/23 05:21:50;;;;;;;1999.90;999.90;;;;;;;6.33;100.00;97647.00;5091898;28;20020;-77
2023/03/23 05:24:15;;;;;;;1999.90;999.90;;;;;;;6.40;100.00;97646.72;5092242;28;20051;-77
2023/03/23 05:26:41;;;;;;;1999.90;999.90;;;;;;;6.53;100.00;97656.19;5092028;28;20028;-76
2023/03/23 05:29:06;;;;;;;1999.90;999.90;;;;;;;6.46;100.00;97651.84;5091432;28;20040;-78
2023/03/23 05:31:32;;;;;;;1999.90;999.90;;;;;;;6.48;100.00;97659.75;5090917;28;20040;-84
2023/03/23 05:33:58;;;;;;;1999.90;999.90;;;;;;;6.53;100.00;97662.44;5081425;28;20043;-81
2023/03/23 05:36:23;;;;;;;1999.90;999.90;;;;;;;6.46;100.00;97646.41;5071907;28;20028;-83
2023/03/23 05:38:51;;;;;;;1999.90;999.90;;;;;;;6.39;100.00;97640.47;5072779;28;20143;-79
2023/03/23 05:41:16;;;;;;;1999.90;999.90;;;;;;;6.51;100.00;97658.38;5072258;28;20062;-81
2023/03/23 05:43:42;;;;;;;1999.90;999.90;;;;;;;6.65;100.00;97670.25;5074028;28;20443;-79
2023/03/23 05:46:08;;;;;;;1999.90;999.90;;;;;;;6.76;100.00;97677.31;5093374;28;20024;-77
2023/03/23 05:48:34;;;;;;;1999.90;999.90;;;;;;;6.89;100.00;97684.88;5092970;28;20054;-80
2023/03/23 05:50:59;;;;;;;1999.90;999.90;;;;;;;6.94;100.00;97676.69;5092224;28;20032;-79
2023/03/23 05:53:25;;;;;;;1999.90;999.90;;;;;;;7.14;100.00;97684.72;5092001;28;20077;-78
2023/03/23 05:55:51;;;;;;;1999.90;999.90;;;;;;;7.04;100.00;97657.59;5094532;28;20495;-79
2023/03/23 05:58:16;;;;;;;1999.90;999.90;;;;;;;7.29;100.00;97687.38;5090938;28;20088;-78
2023/03/23 06:00:42;;;;;;;1999.90;999.90;;;;;;;7.26;100.00;97671.63;5092228;28;20032;-78
2023/03/23 06:03:08;;;;;;;1999.90;999.90;;;;;;;7.45;100.00;97682.66;5090078;28;20031;-77
2023/03/23 06:05:33;;;;;;;1999.90;999.90;;;;;;;7.53;100.00;97677.44;5091554;28;20535;-79
2023/03/23 06:07:59;;;;;;;1999.90;999.90;;;;;;;7.69;100.00;97696.38;5088588;28;20044;-80
2023/03/23 06:10:26;;;;;;;1999.90;999.90;;;;;;;7.68;100.00;97683.84;5089014;28;20044;-76
2023/03/23 06:12:52;;;;;;;1999.90;999.90;;;;;;;7.72;100.00;97693.09;5090439;28;20039;-80
2023/03/23 06:15:18;;;;;;;1999.90;999.90;;;;;;;7.85;100.00;97706.06;5089184;28;20024;-80
2023/03/23 06:17:44;;;;;;;1999.90;999.90;;;;;;;7.78;100.00;97697.41;5090583;28;20485;-78
2023/03/23 06:20:10;;;;;;;1999.90;999.90;;;;;;;7.87;100.00;97701.13;5090849;28;20021;-75
2023/03/23 06:22:39;;;;;;;1999.90;999.90;;;;;;;8.15;100.00;97710.44;5090585;28;20423;-76
2023/03/23 06:25:06;;;;;;;1999.90;999.90;;;;;;;8.29;100.00;97701.38;5090408;28;20040;-75
2023/03/23 06:27:32;;;;;;;1999.90;999.90;;;;;;;8.25;100.00;97683.94;5089885;28;20024;-78
2023/03/23 06:29:57;;;;;;;1999.90;999.90;;;;;;;8.60;100.00;97713.59;5090873;28;20078;-84
2023/03/23 06:32:27;;;;;;;1999.90;999.90;;;;;;;8.69;100.00;97721.13;5096400;28;20562;-86
2023/03/23 06:34:52;;;;;;;1999.90;999.90;;;;;;;8.70;100.00;97692.78;5093938;28;20035;-82
2023/03/23 06:37:18;;;;;;;1999.90;999.90;;;;;;;8.94;100.00;97707.22;5090467;28;20092;-79
2023/03/23 06:39:43;;;;;;;1999.90;999.90;;;;;;;9.14;100.00;97720.63;5090318;28;20586;-83
2023/03/23 06:42:11;;;;;;;1999.90;999.90;;;;;;;9.43;100.00;97724.03;5094588;28;20035;-84
2023/03/23 06:44:36;;;;;;;1999.90;999.90;;;;;;;9.80;100.00;97720.53;5095696;28;20527;-84
2023/03/23 06:47:02;;;;;;;1999.90;999.90;;;;;;;10.41;100.00;97720.38;5101675;28;20020;-84
2023/03/23 06:49:31;;;;;;;1999.90;999.90;;;;;;;11.22;100.00;97718.84;5107137;28;20083;-85
2023/03/23 06:51:57;;;;;;;1999.90;999.90;;;;;;;11.93;100.00;97742.81;5105012;28;20477;-82
2023/03/23 06:54:23;;;;;;;1999.90;999.90;;;;;;;11.59;100.00;97724.06;5097694;28;20040;-84
2023/03/23 06:56:48;;;;;;;1999.90;999.90;;;;;;;11.28;100.00;97725.84;5096978;28;20030;-86
2023/03/23 06:59:13;;;;;;;1999.90;999.90;;;;;;;10.70;100.00;97714.69;5096589;28;20032;-86
2023/03/23 07:01:39;;;;;;;1999.90;999.90;;;;;;;10.74;100.00;97718.44;5097743;28;20043;-81
2023/03/23 07:04:05;;;;;;;1999.90;999.90;;;;;;;11.00;100.00;97716.81;5094153;28;20024;-79
2023/03/23 07:06:30;;;;;;;1999.90;999.90;;;;;;;11.28;100.00;97728.56;5092421;28;20162;-78
2023/03/23 07:08:56;;;;;;;1999.90;999.90;;;;;;;11.00;100.00;97727.75;5092498;28;20663;-75
2023/03/23 07:11:21;;;;;;;1999.90;999.90;;;;;;;10.99;100.00;97748.06;5092947;28;20060;-75
2023/03/23 07:13:47;;;;;;;1999.90;999.90;;;;;;;10.90;100.00;97738.91;5092742;28;20487;-75
2023/03/23 07:16:12;;;;;;;1999.90;999.90;;;;;;;10.92;100.00;97714.81;5092824;28;20026;-76
2023/03/23 07:18:38;;;;;;;1999.90;999.90;;;;;;;11.06;100.00;97717.53;5092036;28;20016;-78
2023/03/23 07:21:03;;;;;;;1999.90;999.90;;;;;;;11.26;100.00;97725.34;5095146;28;20095;-77
2023/03/23 07:23:30;;;;;;;1999.90;999.90;;;;;;;11.42;100.00;97734.88;5094702;28;20028;-77
2023/03/23 07:25:56;;;;;;;1999.90;999.90;;;;;;;11.48;100.00;97744.59;5090251;28;20016;-76
2023/03/23 07:28:22;;;;;;;1999.90;999.90;;;;;;;11.44;100.00;97737.28;5093065;28;20647;-80
2023/03/23 07:30:48;;;;;;;1999.90;999.90;;;;;;;11.55;100.00;97750.47;5093191;28;20067;-75
2023/03/23 07:33:13;;;;;;;1999.90;999.90;;;;;;;11.65;100.00;97744.75;5093124;28;20410;-75
2023/03/23 07:35:39;;;;;;;1999.90;999.90;;;;;;;11.90;100.00;97734.41;5092669;28;20066;-79
2023/03/23 07:38:06;;;;;;;1999.90;999.90;;;;;;;12.85;100.00;97753.13;5093579;28;20016;-81
2023/03/23 07:40:33;;;;;;;1999.90;999.90;;;;;;;13.90;99.14;97754.81;5092637;28;20028;-79
2023/03/23 07:42:59;;;;;;;1999.90;999.90;;;;;;;14.27;94.20;97725.06;5094241;28;20141;-84
2023/03/23 07:45:26;;;;;;;1999.90;999.90;;;;;;;15.56;85.83;97744.81;5095686;28;20024;-90
2023/03/23 07:47:52;;;;;;;1999.90;999.90;;;;;;;16.84;80.50;97734.72;5096571;28;20016;-90
2023/03/23 07:50:23;;;;;;;1999.90;999.90;;;;;;;17.10;71.23;97743.50;5095499;28;20466;-83
2023/03/23 07:52:57;;;;;;;1999.90;999.90;;;;;;;17.50;65.78;97756.69;5096733;28;20027;-88
2023/03/23 07:55:24;;;;;;;1999.90;999.90;;;;;;;18.01;64.34;97755.22;5092134;28;20115;-82
2023/03/23 07:57:51;;;;;;;1999.90;999.90;;;;;;;18.46;61.19;97743.88;5092804;28;20036;-77
2023/03/23 08:00:22;;;;;;;1999.90;999.90;;;;;;;18.54;60.16;97743.75;5092511;28;20544;-81
2023/03/23 08:02:49;;;;;;;1999.90;999.90;;;;;;;18.41;59.87;97742.19;5095767;28;20028;-84
2023/03/23 08:05:17;;;;;;;1999.90;999.90;;;;;;;18.60;58.66;97756.22;5096955;28;20017;-86
2023/03/23 08:07:43;;;;;;;1999.90;999.90;;;;;;;18.24;59.48;97747.19;5097440;28;20024;-85
2023/03/23 08:10:10;;;;;;;1999.90;999.90;;;;;;;18.16;62.87;97733.16;5096729;28;20028;-82
2023/03/23 08:12:36;;;;;;;1999.90;999.90;;;;;;;17.83;64.51;97737.22;5094711;28;20080;-80
2023/03/23 08:15:04;;;;;;;1999.90;999.90;;;;;;;18.04;60.39;97741.44;5092692;28;20550;-81
2023/03/23 08:17:32;;;;;;;1999.90;999.90;;;;;;;18.18;59.24;97744.66;5093143;28;20101;-79
2023/03/23 08:19:58;;;;;;;1999.90;999.90;;;;;;;18.79;56.36;97715.97;5094222;28;20020;-84
2023/03/23 08:22:24;;;;;;;1999.90;999.90;;;;;;;18.86;56.37;97722.47;5092141;28;20128;-84
2023/03/23 08:24:50;;;;;;;1999.90;999.90;;;;;;;19.40;54.67;97741.34;5095718;28;20020;-84
2023/03/23 08:27:15;;;;;;;1999.90;999.90;;;;;;;19.78;54.75;97749.84;5092287;28;20354;-80
2023/03/23 08:29:40;;;;;;;1999.90;999.90;;;;;;;20.46;52.68;97741.06;5093158;28;20020;-79
2023/03/23 08:32:06;;;;;;;1999.90;999.90;;;;;;;20.69;50.32;97737.19;5093739;28;20399;-83
2023/03/23 08:34:32;;;;;;;1999.90;999.90;;;;;;;19.95;52.51;97751.44;5094226;28;20050;-86
2023/03/23 08:36:58;;;;;;;1999.90;999.90;;;;;;;19.72;52.64;97745.72;5093862;28;20491;-84
2023/03/23 08:39:24;;;;;;;1999.90;999.90;;;;;;;19.57;53.13;97752.09;5092915;28;20110;-81
2023/03/23 08:41:50;;;;;;;1999.90;999.90;;;;;;;19.74;52.33;97743.38;5094291;28;20016;-82
2023/03/23 08:44:15;;;;;;;1999.90;999.90;;;;;;;20.09;51.26;97747.00;5102502;28;20035;-87
2023/03/23 08:46:41;;;;;;;1999.90;999.90;;;;;;;20.91;49.44;97757.88;5108408;28;20073;-92
2023/03/23 08:49:08;;;;;;;1999.90;999.90;;;;;;;21.14;48.59;97749.63;5110054;28;20024;-87
2023/03/23 08:51:33;;;;;;;1999.90;999.90;;;;;;;20.95;48.47;97739.31;5106169;28;20044;-88
2023/03/23 08:53:59;;;;;;;1999.90;999.90;;;;;;;20.29;50.40;97745.09;5111362;28;20035;-91
2023/03/23 08:56:25;;;;;;;1999.90;999.90;;;;;;;20.91;51.81;97751.53;5107855;28;20028;-84
2023/03/23 08:58:51;;;;;;;1999.90;999.90;;;;;;;20.17;50.76;97736.88;5091918;28;20028;-89
2023/03/23 09:01:17;;;;;;;1999.90;999.90;;;;;;;19.20;55.28;97749.53;5099940;28;20000;-86
2023/03/23 09:03:42;;;;;;;1999.90;999.90;;;;;;;20.07;51.80;97751.31;5111250;28;20020;-87
2023/03/23 09:06:10;;;;;;;1999.90;999.90;;;;;;;20.11;51.77;97752.97;5111908;28;20031;-90
2023/03/23 09:08:37;;;;;;;1999.90;999.90;;;;;;;20.37;50.98;97755.19;5111572;28;20073;-87
2023/03/23 09:11:04;;;;;;;1999.90;999.90;;;;;;;19.73;53.16;97741.78;5111540;28;20024;-96
2023/03/23 09:13:29;;;;;;;1999.90;999.90;;;;;;;19.16;57.81;97734.78;5112791;28;20481;-88
2023/03/23 09:15:55;;;;;;;1999.90;999.90;;;;;;;19.34;55.16;97729.69;5108969;28;20024;-87
2023/03/23 09:18:21;;;;;;;1999.90;999.90;;;;;;;18.24;59.37;97723.06;5107408;28;20032;-85
2023/03/23 09:20:49;;;;;;;1999.90;999.90;;;;;;;18.27;59.68;97716.81;5106757;28;20036;-85
2023/03/23 09:23:15;;;;;;;1999.90;999.90;;;;;;;18.96;57.48;97716.44;5083637;28;20074;-87
2023/03/23 09:25:40;;;;;;;1999.90;999.90;;;;;;;18.60;57.57;97733.25;5087471;28;20024;-88
2023/03/23 09:28:06;;;;;;;1999.90;999.90;;;;;;;19.94;56.11;97724.81;5105984;28;20028;-91
2023/03/23 09:30:33;;;;;;;1999.90;999.90;;;;;;;21.64;48.94;97737.38;5099524;28;20023;-83
2023/03/23 09:33:03;;;;;;;1999.90;999.90;;;;;;;22.68;50.74;97733.72;5103559;28;20024;-82
2023/03/23 09:35:32;;;;;;;1999.90;999.90;;;;;;;22.20;46.46;97735.47;5104156;28;20081;-82
2023/03/23 09:38:00;;;;;;;1999.90;999.90;;;;;;;22.32;45.75;97729.66;5101408;28;20101;-86
2023/03/23 09:40:32;;;;;;;1999.90;999.90;;;;;;;22.11;45.70;97732.16;5101447;28;20361;-83
2023/03/23 09:43:28;;;;;;;1999.90;999.90;;;;;;;21.57;49.34;97723.31;5080256;28;20122;-83
2023/03/23 09:46:18;;;;;;;1999.90;999.90;;;;;;;22.07;46.45;97731.31;5079602;28;20362;-85
2023/03/23 09:48:59;;;;;;;1999.90;999.90;;;;;;;21.69;49.73;97723.94;5079560;28;20047;-83
2023/03/23 09:51:47;;;;;;;1999.90;999.90;;;;;;;23.09;45.08;97726.22;5093003;28;20024;-80
2023/03/23 09:54:30;;;;;;;1999.90;999.90;;;;;;;24.45;42.17;97730.53;5096950;28;20042;-81
2023/03/23 09:56:58;;;;;;;1999.90;999.90;;;;;;;23.63;44.36;97717.19;5088800;28;20032;-81
2023/03/23 09:59:26;;;;;;;1999.90;999.90;;;;;;;24.26;39.87;97716.84;5084524;28;20025;-81
2023/03/23 10:02:02;;;;;;;1999.90;999.90;;;;;;;24.24;42.95;97707.25;5095441;28;20032;-79
2023/03/23 10:04:54;;;;;;;1999.90;999.90;;;;;;;25.26;38.22;97716.03;5093440;28;20020;-82
2023/03/23 10:07:22;;;;;;;1999.90;999.90;;;;;;;24.69;38.92;97708.66;5093718;28;20040;-79
2023/03/23 10:09:52;;;;;;;1999.90;999.90;;;;;;;23.15;46.27;97699.56;5074491;28;20131;-83
2023/03/23 10:12:23;;;;;;;1999.90;999.90;;;;;;;23.33;43.10;97692.19;5093757;28;20104;-83
2023/03/23 10:15:19;;;;;;;1999.90;999.90;;;;;;;22.46;43.64;97697.59;5098914;28;20032;-82
2023/03/23 10:17:57;;;;;;;1999.90;999.90;;;;;;;22.51;43.77;97688.88;5108015;28;20036;-86
2023/03/23 10:20:55;;;;;;;1999.90;999.90;;;;;;;24.12;40.21;97699.97;5105322;28;20404;-85
2023/03/23 10:23:32;;;;;;;1999.90;999.90;;;;;;;24.65;39.83;97691.88;5104199;28;20047;-81
2023/03/23 10:26:23;;;;;;;1999.90;999.90;;;;;;;25.28;40.94;97690.44;5104445;28;20024;-83
2023/03/23 10:28:55;;;;;;;1999.90;999.90;;;;;;;23.62;42.10;97684.84;5105652;28;20062;-85
2023/03/23 10:31:31;;;;;;;1999.90;999.90;;;;;;;22.77;44.64;97672.88;5110057;28;20028;-85
2023/03/23 10:34:04;;;;;;;1999.90;999.90;;;;;;;24.42;40.46;97677.38;5112460;28;20032;-84
2023/03/23 10:36:51;;;;;;;1999.90;999.90;;;;;;;25.07;39.51;97679.19;5110352;28;20025;-85
2023/03/23 10:39:21;;;;;;;1999.90;999.90;;;;;;;25.88;39.77;97676.44;5108156;28;20020;-85
2023/03/23 10:41:47;;;;;;;1999.90;999.90;;;;;;;26.41;35.69;97682.72;5105039;28;20032;-81
2023/03/23 10:44:27;;;;;;;1999.90;999.90;;;;;;;25.98;35.80;97675.63;5104636;28;20031;-84
2023/03/23 10:47:03;;;;;;;1999.90;999.90;;;;;;;25.75;37.42;97666.88;5107537;28;20061;-82
2023/03/23 10:49:33;;;;;;;1999.90;999.90;;;;;;;26.60;34.86;97673.84;5106407;28;20085;-82
2023/03/23 10:52:28;;;;;;;1999.90;999.90;;;;;;;27.19;33.79;97665.50;5105454;28;20024;-82
2023/03/23 10:55:08;;;;;;;1999.90;999.90;;;;;;;26.79;33.65;97666.13;5102273;28;20040;-83
2023/03/23 10:57:37;;;;;;;1999.90;999.90;;;;;;;26.54;33.96;97658.63;5103882;28;20020;-83
2023/03/23 11:00:16;;;;;;;1999.90;999.90;;;;;;;25.74;35.43;97648.44;5103060;28;20062;-82
2023/03/23 11:02:58;;;;;;;1999.90;999.90;;;;;;;27.81;33.03;97659.00;5113722;28;20048;-82
2023/03/23 11:05:32;;;;;;;1999.90;999.90;;;;;;;28.14;30.65;97669.53;5112944;28;20118;-82